createdAt,value
2022-12-19T00:02:58.562Z,100.00
2022-12-19T00:13:03.437Z,100.00
2022-12-19T00:23:08.812Z,100.00
2022-12-19T00:33:17.000Z,100.00
2022-12-19T00:43:19.318Z,100.00
2022-12-19T00:53:27.771Z,100.00
2022-12-19T01:03:35.129Z,100.00
2022-12-19T01:13:40.598Z,100.00
2022-12-19T01:23:49.290Z,100.00
2022-12-19T01:33:52.648Z,100.00
2022-12-19T01:44:06.877Z,100.00
2022-12-19T01:54:12.646Z,100.00
2022-12-19T02:04:19.259Z,100.00
2022-12-19T02:14:22.135Z,100.00
2022-12-19T02:24:31.040Z,100.00
2022-12-19T02:34:57.969Z,100.00
2022-12-19T02:45:04.436Z,100.00
2022-12-19T02:55:11.621Z,100.00
2022-12-19T03:05:35.098Z,100.00
2022-12-19T03:15:38.512Z,100.00
2022-12-19T03:25:46.452Z,100.00
2022-12-19T03:35:49.945Z,100.00
2022-12-19T03:46:08.162Z,100.00
2022-12-19T03:56:25.408Z,100.00
2022-12-19T04:06:30.590Z,100.00
2022-12-19T04:16:52.147Z,100.00
2022-12-19T04:26:58.053Z,100.00
2022-12-19T04:37:00.231Z,100.00
2022-12-19T04:47:04.643Z,100.00
2022-12-19T04:57:09.803Z,100.00
2022-12-19T05:07:14.441Z,100.00
2022-12-19T05:17:19.117Z,100.00
2022-12-19T05:27:23.524Z,100.00
2022-12-19T05:37:28.055Z,100.00
2022-12-19T05:47:32.978Z,100.00
2022-12-19T05:57:35.727Z,100.00
2022-12-19T06:07:42.780Z,100.00
2022-12-19T06:17:45.473Z,100.00
2022-12-19T06:27:52.286Z,100.00
2022-12-19T06:38:01.844Z,100.00
2022-12-19T06:48:04.083Z,100.00
2022-12-19T06:58:08.819Z,100.00
2022-12-19T07:08:11.969Z,100.00
2022-12-19T07:18:19.013Z,100.00
2022-12-19T07:28:23.228Z,100.00
2022-12-19T07:38:28.051Z,100.00
2022-12-19T07:48:33.902Z,100.00
2022-12-19T07:58:38.230Z,100.00
2022-12-19T08:08:42.946Z,100.00
2022-12-19T08:18:45.580Z,100.00
2022-12-19T08:28:49.853Z,100.00
2022-12-19T08:38:54.632Z,100.00
2022-12-19T08:48:56.730Z,100.00
2022-12-19T08:59:01.026Z,100.00
2022-12-19T09:09:04.400Z,100.00
2022-12-19T09:19:06.468Z,100.00
2022-12-19T09:29:20.632Z,100.00
2022-12-19T09:39:25.506Z,100.00
2022-12-19T09:49:41.982Z,100.00
2022-12-19T09:59:49.648Z,100.00
2022-12-19T10:12:34.521Z,100.00
2022-12-19T10:20:44.956Z,100.00
2022-12-19T10:30:53.404Z,100.00
2022-12-19T10:41:24.678Z,99.78
2022-12-19T10:51:30.796Z,98.72
2022-12-19T11:01:38.050Z,97.20
2022-12-19T11:15:22.945Z,96.46
2022-12-19T11:29:40.287Z,95.03
2022-12-19T11:32:42.673Z,93.66
2022-12-19T11:43:25.594Z,94.10
2022-12-19T11:53:31.133Z,94.38
2022-12-19T12:04:02.008Z,93.28
2022-12-19T12:24:51.017Z,93.70
2022-12-19T12:31:57.749Z,94.73
2022-12-19T12:46:05.187Z,95.81
2022-12-19T12:56:10.104Z,96.33
2022-12-19T13:06:32.856Z,97.93
2022-12-19T13:16:44.318Z,99.54
2022-12-19T13:26:51.226Z,100.00
2022-12-19T13:39:48.862Z,100.00
2022-12-19T13:47:24.965Z,100.00
2022-12-19T13:57:32.344Z,100.00
2022-12-19T14:07:42.579Z,100.00
2022-12-19T14:17:48.776Z,100.00
2022-12-19T14:28:29.074Z,100.00
2022-12-19T14:39:23.114Z,100.00
2022-12-19T14:54:03.377Z,100.00
2022-12-19T14:59:42.445Z,100.00
2022-12-19T15:11:06.813Z,100.00
2022-12-19T15:20:14.857Z,100.00
2022-12-19T15:30:21.822Z,100.00
2022-12-19T15:40:28.283Z,100.00
2022-12-19T15:50:32.444Z,100.00
2022-12-19T16:00:40.030Z,100.00
2022-12-19T16:10:44.339Z,100.00
2022-12-19T16:20:49.201Z,100.00
2022-12-19T16:30:51.507Z,100.00
2022-12-19T16:40:57.401Z,100.00
2022-12-19T16:50:59.552Z,100.00
2022-12-19T17:01:04.225Z,100.00
2022-12-19T17:11:16.863Z,100.00
2022-12-19T17:21:22.992Z,100.00
2022-12-19T17:31:30.672Z,100.00
2022-12-19T17:41:37.253Z,100.00
2022-12-19T17:51:52.564Z,100.00
2022-12-19T18:01:56.516Z,100.00
2022-12-19T18:12:01.141Z,100.00
2022-12-19T18:22:12.208Z,100.00
2022-12-19T18:32:19.337Z,100.00
2022-12-19T18:42:21.995Z,100.00
2022-12-19T18:52:28.227Z,100.00
2022-12-19T19:02:38.584Z,100.00
2022-12-19T19:12:43.251Z,100.00
2022-12-19T19:22:49.751Z,100.00
2022-12-19T19:33:08.129Z,100.00
2022-12-19T19:43:10.458Z,100.00
2022-12-19T19:53:12.941Z,100.00
2022-12-19T20:03:22.297Z,100.00
2022-12-19T20:13:27.507Z,100.00
2022-12-19T20:23:29.602Z,100.00
2022-12-19T20:33:32.008Z,100.00
2022-12-19T20:43:35.903Z,100.00
2022-12-19T20:53:42.058Z,100.00
2022-12-19T21:03:44.514Z,100.00
2022-12-19T21:13:47.353Z,100.00
2022-12-19T21:23:52.506Z,100.00
2022-12-19T21:33:56.325Z,100.00
2022-12-19T21:44:01.842Z,100.00
2022-12-19T21:54:07.199Z,100.00
2022-12-19T22:04:15.129Z,100.00
2022-12-19T22:14:19.991Z,100.00
2022-12-19T22:24:29.121Z,100.00
2022-12-19T22:34:35.382Z,100.00
2022-12-19T22:44:37.630Z,100.00
2022-12-19T22:54:44.552Z,100.00
2022-12-19T23:04:46.707Z,100.00
2022-12-19T23:14:48.720Z,100.00
2022-12-19T23:24:50.780Z,100.00
2022-12-19T23:34:52.785Z,100.00
2022-12-19T23:44:55.519Z,100.00
2022-12-19T23:54:57.727Z,100.00
